Time,TemperatureF,DewpointF,PressureIn,WindDirection,WindDirectionDegrees,WindSpeedMPH,WindSpeedGustMPH,Humidity,HourlyPrecipIn,Conditions,Clouds,dailyrainin,SolarRadiationWatts/m^2,SoftwareType,DateUTC
2013-02-02 00:01:00,35.0,35.0,-100.00,SSE,167,0.0,4.0,100,0.00,,,0.01,0.000000,,2013-02-02 08:01:00,
2013-02-02 00:11:00,35.0,35.0,-100.00,SSE,167,0.0,4.0,100,0.00,,,0.01,0.000000,,2013-02-02 08:11:00,
2013-02-02 00:42:00,33.0,32.0,-100.00,SSW,195,0.0,0.0,95,0.00,,,0.01,0.000000,,2013-02-02 08:42:00,
2013-02-02 00:53:00,33.0,32.0,-100.00,SSW,195,0.0,0.0,95,0.00,,,0.01,0.000000,,2013-02-02 08:53:00,
2013-02-02 01:01:00,33.0,32.0,-100.00,SSW,195,0.0,0.0,95,0.00,,,0.01,0.000000,,2013-02-02 09:01:00,
2013-02-02 01:11:00,33.0,32.0,-100.00,SSW,195,0.0,0.0,95,0.00,,,0.01,0.000000,,2013-02-02 09:11:00,
2013-02-02 01:32:00,33.0,33.0,-100.00,SSE,159,0.0,4.0,100,0.00,,,0.01,0.000000,,2013-02-02 09:32:00,
2013-02-02 01:42:00,33.0,33.0,-100.00,SSE,159,0.0,4.0,100,0.00,,,0.01,0.000000,,2013-02-02 09:42:00,
2013-02-02 01:52:00,33.0,33.0,-100.00,SSE,159,0.0,4.0,100,0.00,,,0.01,0.000000,,2013-02-02 09:52:00,
2013-02-02 02:01:00,33.0,33.0,-100.00,SSE,159,0.0,4.0,100,0.00,,,0.01,0.000000,,2013-02-02 10:01:00,
2013-02-02 02:11:00,33.0,33.0,-100.00,SSE,159,0.0,4.0,100,0.00,,,0.01,0.000000,,2013-02-02 10:11:00,
2013-02-02 02:32:00,32.0,32.0,-100.00,SSW,197,0.0,3.0,100,0.00,,,0.01,0.000000,,2013-02-02 10:32:00,
2013-02-02 02:42:00,32.0,32.0,-100.00,SSW,197,0.0,3.0,100,0.00,,,0.01,0.000000,,2013-02-02 10:42:00,
2013-02-02 02:52:00,32.0,32.0,-100.00,SSW,197,0.0,3.0,100,0.00,,,0.01,0.000000,,2013-02-02 10:52:00,
2013-02-02 03:01:00,32.0,32.0,-100.00,SSW,197,0.0,3.0,100,0.00,,,0.01,0.000000,,2013-02-02 11:01:00,
2013-02-02 03:11:00,32.0,32.0,-100.00,SSW,197,0.0,3.0,100,0.00,,,0.01,0.000000,,2013-02-02 11:11:00,
2013-02-02 03:32:00,33.0,33.0,-100.00,South,187,1.0,5.0,100,0.00,,,0.01,0.000000,,2013-02-02 11:32:00,
2013-02-02 03:42:00,33.0,33.0,-100.00,South,187,1.0,5.0,100,0.00,,,0.01,0.000000,,2013-02-02 11:42:00,
2013-02-02 03:52:00,33.0,33.0,-100.00,South,187,1.0,5.0,100,0.00,,,0.01,0.000000,,2013-02-02 11:52:00,
2013-02-02 04:01:00,33.0,33.0,-100.00,South,187,1.0,5.0,100,0.00,,,0.01,0.000000,,2013-02-02 12:01:00,
2013-02-02 04:11:00,33.0,33.0,-100.00,South,187,1.0,5.0,100,0.00,,,0.01,0.000000,,2013-02-02 12:11:00,
2013-02-02 04:32:00,32.0,32.0,-100.00,South,169,0.0,5.0,100,0.00,,,-99.99,0.000000,,2013-02-02 12:32:00,
2013-02-02 04:42:00,32.0,32.0,-100.00,South,169,0.0,5.0,100,0.00,,,-99.99,0.000000,,2013-02-02 12:42:00,
2013-02-02 04:52:00,32.0,32.0,-100.00,South,169,0.0,5.0,100,0.00,,,-99.99,0.000000,,2013-02-02 12:52:00,
2013-02-02 05:02:00,32.0,32.0,-100.00,South,169,0.0,5.0,100,0.00,,,-99.99,0.000000,,2013-02-02 13:02:00,
2013-02-02 05:11:00,32.0,32.0,-100.00,South,169,0.0,5.0,100,0.00,,,-99.99,0.000000,,2013-02-02 13:11:00,
2013-02-02 05:42:00,33.0,33.0,-100.00,South,173,0.0,3.0,100,0.00,,,0.01,0.000000,,2013-02-02 13:42:00,
2013-02-02 05:52:00,33.0,33.0,-100.00,South,173,0.0,3.0,100,0.00,,,0.01,0.000000,,2013-02-02 13:52:00,
2013-02-02 06:02:00,33.0,33.0,-100.00,South,173,0.0,3.0,100,0.00,,,0.01,0.000000,,2013-02-02 14:02:00,
2013-02-02 06:11:00,33.0,33.0,-100.00,South,173,0.0,3.0,100,0.00,,,0.01,0.000000,,2013-02-02 14:11:00,
2013-02-02 06:42:00,34.0,34.0,-100.00,SSE,163,0.0,4.0,99,0.00,,,0.01,0.000000,,2013-02-02 14:42:00,
2013-02-02 06:52:00,34.0,34.0,-100.00,SSE,163,0.0,4.0,99,0.00,,,0.01,0.000000,,2013-02-02 14:52:00,
2013-02-02 07:02:00,34.0,34.0,-100.00,SSE,163,0.0,4.0,99,0.00,,,0.01,0.000000,,2013-02-02 15:02:00,
2013-02-02 07:11:00,34.0,34.0,-100.00,SSE,163,0.0,4.0,99,0.00,,,0.01,0.000000,,2013-02-02 15:11:00,
2013-02-02 07:33:00,33.0,33.0,-100.00,East,96,0.0,0.0,100,0.00,,,0.01,2.000000,,2013-02-02 15:33:00,
2013-02-02 07:42:00,33.0,33.0,-100.00,East,96,0.0,0.0,100,0.00,,,0.01,2.000000,,2013-02-02 15:42:00,
2013-02-02 07:52:00,33.0,33.0,-100.00,East,96,0.0,0.0,100,0.00,,,0.01,2.000000,,2013-02-02 15:52:00,
2013-02-02 08:02:00,33.0,33.0,-100.00,East,96,0.0,0.0,100,0.00,,,0.01,2.000000,,2013-02-02 16:02:00,
2013-02-02 08:11:00,33.0,33.0,-100.00,East,96,0.0,0.0,100,0.00,,,0.01,2.000000,,2013-02-02 16:11:00,
2013-02-02 08:42:00,36.0,29.0,-100.00,NE,50,0.0,4.0,76,0.00,,,-99.99,139.000000,,2013-02-02 16:42:00,
2013-02-02 08:52:00,36.0,29.0,-100.00,NE,50,0.0,4.0,76,0.00,,,-99.99,139.000000,,2013-02-02 16:52:00,
2013-02-02 09:02:00,36.0,29.0,-100.00,NE,50,0.0,4.0,76,0.00,,,-99.99,139.000000,,2013-02-02 17:02:00,
2013-02-02 09:11:00,36.0,29.0,-100.00,NE,50,0.0,4.0,76,0.00,,,-99.99,139.000000,,2013-02-02 17:11:00,
2013-02-02 09:33:00,44.0,29.0,-100.00,North,356,0.0,3.0,55,0.00,,,-99.99,247.000000,,2013-02-02 17:33:00,
2013-02-02 09:42:00,44.0,29.0,-100.00,North,356,0.0,3.0,55,0.00,,,-99.99,247.000000,,2013-02-02 17:42:00,
2013-02-02 09:52:00,44.0,29.0,-100.00,North,356,0.0,3.0,55,0.00,,,-99.99,247.000000,,2013-02-02 17:52:00,
2013-02-02 10:02:00,44.0,29.0,-100.00,North,356,0.0,3.0,55,0.00,,,-99.99,247.000000,,2013-02-02 18:02:00,
2013-02-02 10:32:00,49.0,32.0,-100.00,North,5,1.0,4.0,51,-99.99,,,0.01,407.000000,,2013-02-02 18:32:00,
2013-02-02 10:42:00,49.0,32.0,-100.00,North,5,1.0,4.0,51,-99.99,,,0.01,407.000000,,2013-02-02 18:42:00,
2013-02-02 10:52:00,49.0,32.0,-100.00,North,5,1.0,4.0,51,-99.99,,,0.01,407.000000,,2013-02-02 18:52:00,
2013-02-02 11:01:00,49.0,32.0,-100.00,North,5,1.0,4.0,51,-99.99,,,0.01,407.000000,,2013-02-02 19:01:00,
2013-02-02 11:32:00,50.0,32.0,-100.00,NNW,345,1.0,6.0,50,-99.99,,,0.01,497.000000,,2013-02-02 19:32:00,
2013-02-02 11:42:00,50.0,32.0,-100.00,NNW,345,1.0,6.0,50,-99.99,,,0.01,497.000000,,2013-02-02 19:42:00,
2013-02-02 11:52:00,50.0,32.0,-100.00,NNW,345,1.0,6.0,50,-99.99,,,0.01,497.000000,,2013-02-02 19:52:00,
2013-02-02 12:01:00,50.0,32.0,-100.00,NNW,345,1.0,6.0,50,-99.99,,,0.01,497.000000,,2013-02-02 20:01:00,
2013-02-02 12:32:00,49.0,29.0,-100.00,North,3,2.0,6.0,46,-99.99,,,0.01,556.000000,,2013-02-02 20:32:00,
2013-02-02 12:42:00,49.0,29.0,-100.00,North,3,2.0,6.0,46,-99.99,,,0.01,556.000000,,2013-02-02 20:42:00,
2013-02-02 12:52:00,49.0,29.0,-100.00,North,3,2.0,6.0,46,-99.99,,,0.01,556.000000,,2013-02-02 20:52:00,
2013-02-02 13:02:00,49.0,29.0,-100.00,North,3,2.0,6.0,46,-99.99,,,0.01,556.000000,,2013-02-02 21:02:00,
2013-02-02 13:11:00,49.0,29.0,-100.00,North,3,2.0,6.0,46,-99.99,,,0.01,556.000000,,2013-02-02 21:11:00,
2013-02-02 13:42:00,49.0,33.0,-100.00,WSW,246,0.0,7.0,53,0.00,,,0.01,460.000000,,2013-02-02 21:42:00,
2013-02-02 13:52:00,49.0,33.0,-100.00,WSW,246,0.0,7.0,53,0.00,,,0.01,460.000000,,2013-02-02 21:52:00,
2013-02-02 14:02:00,49.0,33.0,-100.00,WSW,246,0.0,7.0,53,0.00,,,0.01,460.000000,,2013-02-02 22:02:00,
2013-02-02 14:11:00,49.0,33.0,-100.00,WSW,246,0.0,7.0,53,0.00,,,0.01,460.000000,,2013-02-02 22:11:00,
2013-02-02 14:32:00,45.0,32.0,-100.00,SW,232,1.0,5.0,60,0.00,,,0.01,296.000000,,2013-02-02 22:32:00,
2013-02-02 14:42:00,45.0,32.0,-100.00,SW,232,1.0,5.0,60,0.00,,,0.01,296.000000,,2013-02-02 22:42:00,
2013-02-02 14:52:00,45.0,32.0,-100.00,SW,232,1.0,5.0,60,0.00,,,0.01,296.000000,,2013-02-02 22:52:00,
2013-02-02 15:01:00,45.0,32.0,-100.00,SW,232,1.0,5.0,60,0.00,,,0.01,296.000000,,2013-02-02 23:01:00,
2013-02-02 15:11:00,45.0,32.0,-100.00,SW,232,1.0,5.0,60,0.00,,,0.01,296.000000,,2013-02-02 23:11:00,
2013-02-02 15:42:00,42.0,30.0,-100.00,West,267,0.0,5.0,63,0.00,,,0.01,161.000000,,2013-02-02 23:42:00,
2013-02-02 15:52:00,42.0,30.0,-100.00,West,267,0.0,5.0,63,0.00,,,0.01,161.000000,,2013-02-02 23:52:00,
2013-02-02 16:01:00,42.0,30.0,-100.00,West,267,0.0,5.0,63,0.00,,,0.01,161.000000,,2013-02-03 00:01:00,
2013-02-02 16:11:00,42.0,30.0,-100.00,West,267,0.0,5.0,63,0.00,,,0.01,161.000000,,2013-02-03 00:11:00,
2013-02-02 16:32:00,40.0,30.0,-100.00,NNE,12,0.0,3.0,67,0.00,,,0.01,83.000000,,2013-02-03 00:32:00,
2013-02-02 16:42:00,40.0,30.0,-100.00,NNE,12,0.0,3.0,67,0.00,,,0.01,83.000000,,2013-02-03 00:42:00,
2013-02-02 16:52:00,40.0,30.0,-100.00,NNE,12,0.0,3.0,67,0.00,,,0.01,83.000000,,2013-02-03 00:52:00,
2013-02-02 17:02:00,40.0,30.0,-100.00,NNE,12,0.0,3.0,67,0.00,,,0.01,83.000000,,2013-02-03 01:02:00,
2013-02-02 17:11:00,40.0,30.0,-100.00,NNE,12,0.0,3.0,67,0.00,,,0.01,83.000000,,2013-02-03 01:11:00,
2013-02-02 17:42:00,36.0,31.0,-100.00,ENE,70,0.0,0.0,82,0.00,,,0.01,3.000000,,2013-02-03 01:42:00,
2013-02-02 17:52:00,36.0,31.0,-100.00,ENE,70,0.0,0.0,82,0.00,,,0.01,3.000000,,2013-02-03 01:52:00,
2013-02-02 18:01:00,36.0,31.0,-100.00,ENE,70,0.0,0.0,82,0.00,,,0.01,3.000000,,2013-02-03 02:01:00,
2013-02-02 18:11:00,36.0,31.0,-100.00,ENE,70,0.0,0.0,82,0.00,,,0.01,3.000000,,2013-02-03 02:11:00,
2013-02-02 18:42:00,37.0,28.0,-100.00,East,85,0.0,0.0,70,0.00,,,0.00,0.000000,,2013-02-03 02:42:00,
2013-02-02 18:52:00,37.0,28.0,-100.00,East,85,0.0,0.0,70,0.00,,,0.00,0.000000,,2013-02-03 02:52:00,
2013-02-02 19:02:00,37.0,28.0,-100.00,East,85,0.0,0.0,70,0.00,,,0.00,0.000000,,2013-02-03 03:02:00,
2013-02-02 19:11:00,37.0,28.0,-100.00,East,85,0.0,0.0,70,0.00,,,0.00,0.000000,,2013-02-03 03:11:00,
2013-02-02 19:42:00,35.0,26.0,-100.00,ESE,115,0.0,0.0,69,0.00,,,0.00,0.000000,,2013-02-03 03:42:00,
2013-02-02 19:52:00,35.0,26.0,-100.00,ESE,115,0.0,0.0,69,0.00,,,0.00,0.000000,,2013-02-03 03:52:00,
2013-02-02 20:01:00,35.0,26.0,-100.00,ESE,115,0.0,0.0,69,0.00,,,0.00,0.000000,,2013-02-03 04:01:00,
2013-02-02 20:11:00,35.0,26.0,-100.00,ESE,115,0.0,0.0,69,0.00,,,0.00,0.000000,,2013-02-03 04:11:00,
2013-02-02 20:32:00,37.0,27.0,-100.00,SE,130,0.0,0.0,67,0.00,,,0.00,0.000000,,2013-02-03 04:32:00,
2013-02-02 20:42:00,37.0,27.0,-100.00,SE,130,0.0,0.0,67,0.00,,,0.00,0.000000,,2013-02-03 04:42:00,
2013-02-02 20:52:00,37.0,27.0,-100.00,SE,130,0.0,0.0,67,0.00,,,0.00,0.000000,,2013-02-03 04:52:00,
2013-02-02 21:03:00,37.0,27.0,-100.00,SE,130,0.0,0.0,67,0.00,,,0.00,0.000000,,2013-02-03 05:03:00,
2013-02-02 21:11:00,37.0,27.0,-100.00,SE,130,0.0,0.0,67,0.00,,,0.00,0.000000,,2013-02-03 05:11:00,
2013-02-02 21:42:00,35.0,26.0,-100.00,SE,124,0.0,0.0,68,0.00,,,0.00,0.000000,,2013-02-03 05:42:00,
2013-02-02 21:52:00,35.0,26.0,-100.00,SE,124,0.0,0.0,68,0.00,,,0.00,0.000000,,2013-02-03 05:52:00,
2013-02-02 22:02:00,35.0,26.0,-100.00,SE,124,0.0,0.0,68,0.00,,,0.00,0.000000,,2013-02-03 06:02:00,
2013-02-02 22:11:00,35.0,26.0,-100.00,SE,124,0.0,0.0,68,0.00,,,0.00,0.000000,,2013-02-03 06:11:00,
2013-02-02 22:32:00,35.0,26.0,-100.00,SSE,150,0.0,2.0,68,0.00,,,0.00,0.000000,,2013-02-03 06:32:00,
2013-02-02 22:42:00,35.0,26.0,-100.00,SSE,150,0.0,2.0,68,0.00,,,0.00,0.000000,,2013-02-03 06:42:00,
2013-02-02 22:52:00,35.0,26.0,-100.00,SSE,150,0.0,2.0,68,0.00,,,0.00,0.000000,,2013-02-03 06:52:00,
2013-02-02 23:01:00,35.0,26.0,-100.00,SSE,150,0.0,2.0,68,0.00,,,0.00,0.000000,,2013-02-03 07:01:00,
2013-02-02 23:11:00,35.0,26.0,-100.00,SSE,150,0.0,2.0,68,0.00,,,0.00,0.000000,,2013-02-03 07:11:00,
2013-02-02 23:42:00,36.0,27.0,-100.00,South,181,0.0,2.0,69,0.00,,,0.00,0.000000,,2013-02-03 07:42:00,
2013-02-02 23:52:00,36.0,27.0,-100.00,South,181,0.0,2.0,69,0.00,,,0.00,0.000000,,2013-02-03 07:52:00,